createdAt,value
2022-09-02T00:01:57.639Z,18.20
2022-09-02T00:04:26.874Z,18.20
2022-09-02T00:06:55.370Z,18.30
2022-09-02T00:09:24.970Z,18.40
2022-09-02T00:11:54.292Z,18.40
2022-09-02T00:14:28.149Z,18.40
2022-09-02T00:16:56.099Z,18.40
2022-09-02T00:19:25.776Z,18.30
2022-09-02T00:21:55.234Z,18.20
2022-09-02T00:24:24.911Z,18.20
2022-09-02T00:26:56.544Z,18.10
2022-09-02T00:29:26.539Z,18.10
2022-09-02T00:31:54.543Z,18.10
2022-09-02T00:34:22.965Z,18.10
2022-09-02T00:36:51.444Z,18.10
2022-09-02T00:39:21.675Z,18.00
2022-09-02T00:41:50.198Z,18.00
2022-09-02T00:44:19.793Z,17.90
2022-09-02T00:46:47.785Z,17.90
2022-09-02T00:49:19.013Z,17.80
2022-09-02T00:51:54.633Z,17.70
2022-09-02T00:54:25.560Z,17.70
2022-09-02T00:56:55.881Z,17.60
2022-09-02T00:59:40.059Z,17.60
2022-09-02T01:02:08.335Z,17.60
2022-09-02T01:04:36.592Z,17.50
2022-09-02T01:07:06.181Z,17.50
2022-09-02T01:09:33.916Z,17.50
2022-09-02T01:12:03.121Z,17.40
2022-09-02T01:14:31.199Z,17.40
2022-09-02T01:17:01.528Z,17.40
2022-09-02T01:19:35.171Z,17.40
2022-09-02T01:22:06.069Z,17.30
2022-09-02T01:24:34.816Z,17.30
2022-09-02T01:27:02.571Z,17.20
2022-09-02T01:29:30.398Z,17.20
2022-09-02T01:31:58.309Z,17.20
2022-09-02T01:34:26.095Z,17.20
2022-09-02T01:36:53.788Z,17.10
2022-09-02T01:39:21.657Z,17.10
2022-09-02T01:41:49.486Z,17.10
2022-09-02T01:44:17.854Z,17.00
2022-09-02T01:46:47.395Z,17.00
2022-09-02T01:49:15.160Z,17.00
2022-09-02T01:51:42.838Z,17.10
2022-09-02T01:54:10.490Z,17.10
2022-09-02T01:56:38.932Z,17.10
2022-09-02T01:59:08.090Z,17.00
2022-09-02T02:01:36.173Z,17.00
2022-09-02T02:04:04.335Z,16.90
2022-09-02T02:06:32.239Z,16.80
2022-09-02T02:09:00.362Z,16.80
2022-09-02T02:11:28.223Z,16.80
2022-09-02T02:13:55.973Z,16.80
2022-09-02T02:16:23.885Z,16.70
2022-09-02T02:18:51.782Z,16.70
2022-09-02T02:21:19.978Z,16.80
2022-09-02T02:23:48.537Z,16.70
2022-09-02T02:26:16.534Z,16.60
2022-09-02T02:28:44.536Z,16.50
2022-09-02T02:31:12.411Z,16.50
2022-09-02T02:33:40.239Z,16.50
2022-09-02T02:36:08.829Z,16.40
2022-09-02T02:38:38.796Z,16.40
2022-09-02T02:41:07.864Z,16.40
2022-09-02T02:43:36.421Z,16.40
2022-09-02T02:46:04.674Z,16.40
2022-09-02T02:48:33.792Z,16.40
2022-09-02T02:51:02.428Z,16.30
2022-09-02T02:53:31.304Z,16.30
2022-09-02T02:55:59.871Z,16.30
2022-09-02T02:58:27.994Z,16.30
2022-09-02T03:00:57.029Z,16.30
2022-09-02T03:03:25.111Z,16.20
2022-09-02T03:05:52.977Z,16.20
2022-09-02T03:08:21.746Z,16.10
2022-09-02T03:10:54.605Z,16.10
2022-09-02T03:13:24.084Z,16.10
2022-09-02T03:15:52.509Z,16.10
2022-09-02T03:18:21.812Z,16.10
2022-09-02T03:20:49.575Z,16.10
2022-09-02T03:23:18.975Z,16.00
2022-09-02T03:25:47.003Z,16.00
2022-09-02T03:28:14.879Z,16.00
2022-09-02T03:30:42.985Z,16.00
2022-09-02T03:33:10.909Z,16.00
2022-09-02T03:35:41.380Z,15.90
2022-09-02T03:38:09.811Z,15.90
2022-09-02T03:40:38.240Z,16.00
2022-09-02T03:43:05.997Z,16.00
2022-09-02T03:45:41.813Z,16.00
2022-09-02T03:53:42.704Z,16.00
2022-09-02T04:04:38.828Z,15.70
2022-09-02T04:37:37.134Z,15.40
2022-09-02T04:40:45.416Z,15.30
2022-09-02T04:43:48.342Z,15.30
2022-09-02T04:47:02.986Z,15.30
2022-09-02T04:52:53.180Z,15.30
2022-09-02T04:55:24.975Z,15.30
2022-09-02T04:57:58.466Z,15.30
2022-09-02T05:00:31.928Z,15.30
2022-09-02T05:03:17.770Z,15.30
2022-09-02T05:05:57.982Z,15.30
2022-09-02T05:08:43.544Z,15.40
2022-09-02T05:11:38.054Z,15.30
2022-09-02T05:14:26.074Z,15.40
2022-09-02T05:17:26.802Z,15.40
2022-09-02T05:20:32.382Z,15.50
2022-09-02T05:23:50.393Z,15.60
2022-09-02T05:26:38.621Z,15.70
2022-09-02T05:29:42.012Z,15.80
2022-09-02T05:32:24.911Z,15.80
2022-09-02T05:35:05.233Z,15.90
2022-09-02T05:38:09.448Z,16.00
2022-09-02T05:40:55.064Z,16.00
2022-09-02T05:54:05.611Z,16.20
2022-09-02T05:56:57.595Z,16.40
2022-09-02T05:59:36.885Z,16.40
2022-09-02T06:02:42.172Z,16.60
2022-09-02T06:12:42.632Z,16.80
2022-09-02T06:26:03.380Z,17.30
2022-09-02T06:32:08.831Z,17.50
2022-09-02T06:34:37.048Z,17.50
2022-09-02T06:37:04.774Z,17.50
2022-09-02T06:39:34.763Z,17.60
2022-09-02T06:42:02.699Z,17.70
2022-09-02T06:44:32.508Z,17.80
2022-09-02T06:47:00.598Z,17.90
2022-09-02T06:49:29.140Z,18.00
2022-09-02T06:51:56.991Z,18.10
2022-09-02T06:54:25.464Z,18.20
2022-09-02T06:56:53.543Z,18.30
2022-09-02T06:59:22.237Z,18.30
2022-09-02T07:01:50.442Z,18.50
2022-09-02T07:04:37.263Z,18.50
2022-09-02T07:07:06.986Z,18.60
2022-09-02T07:09:35.451Z,18.60
2022-09-02T07:12:05.265Z,18.70
2022-09-02T07:14:39.839Z,18.70
2022-09-02T07:17:09.215Z,18.80
2022-09-02T07:19:37.314Z,18.90
2022-09-02T07:22:06.474Z,19.00
2022-09-02T07:24:34.324Z,19.20
2022-09-02T07:27:05.910Z,19.40
2022-09-02T07:29:34.260Z,19.50
2022-09-02T07:32:06.760Z,19.60
2022-09-02T07:34:35.218Z,19.80
2022-09-02T07:37:09.951Z,19.80
2022-09-02T07:39:39.406Z,19.80
2022-09-02T07:42:11.080Z,19.90
2022-09-02T07:44:40.289Z,19.80
2022-09-02T07:47:09.144Z,19.90
2022-09-02T07:52:26.259Z,20.00
2022-09-02T07:54:54.560Z,19.90
2022-09-02T07:57:23.711Z,19.90
2022-09-02T08:00:20.590Z,20.00
2022-09-02T08:02:53.712Z,20.20
2022-09-02T08:05:23.051Z,20.30
2022-09-02T08:07:53.410Z,20.40
2022-09-02T08:10:26.013Z,20.50
2022-09-02T08:12:58.619Z,20.60
2022-09-02T08:15:33.691Z,20.60
2022-09-02T08:18:06.254Z,20.70
2022-09-02T08:20:36.854Z,20.80
2022-09-02T08:23:25.675Z,20.90
2022-09-02T08:26:05.155Z,21.00
2022-09-02T08:28:33.540Z,21.10
2022-09-02T08:31:09.507Z,21.20
2022-09-02T08:33:41.284Z,21.20
2022-09-02T08:36:19.142Z,21.30
2022-09-02T08:38:49.535Z,21.40
2022-09-02T08:41:27.975Z,21.50
2022-09-02T08:44:02.640Z,21.60
2022-09-02T08:46:34.230Z,21.70
2022-09-02T08:49:18.922Z,21.70
2022-09-02T08:52:01.546Z,21.60
2022-09-02T08:54:44.614Z,21.70
2022-09-02T08:57:13.485Z,21.80
2022-09-02T08:59:45.590Z,21.80
2022-09-02T09:02:20.619Z,21.80
2022-09-02T09:05:22.755Z,22.00
2022-09-02T09:08:14.719Z,22.10
2022-09-02T09:11:13.017Z,21.90
2022-09-02T09:13:52.109Z,22.10
2022-09-02T09:16:41.492Z,22.30
2022-09-02T09:19:22.398Z,22.40
2022-09-02T09:21:52.894Z,22.50
2022-09-02T09:24:56.478Z,22.60
2022-09-02T09:27:25.173Z,22.70
2022-09-02T09:33:18.928Z,23.00
2022-09-02T09:36:35.115Z,23.00
2022-09-02T09:39:36.848Z,23.10
2022-09-02T09:42:36.289Z,23.00
2022-09-02T09:45:34.418Z,23.10
2022-09-02T09:51:50.367Z,23.10
2022-09-02T09:55:28.441Z,23.20
2022-09-02T09:58:09.215Z,23.60
2022-09-02T10:00:39.034Z,23.70
2022-09-02T10:03:08.521Z,23.80
2022-09-02T10:05:40.690Z,23.90
2022-09-02T10:08:17.110Z,24.10
2022-09-02T10:11:21.037Z,23.90
2022-09-02T10:13:48.709Z,23.80
2022-09-02T10:16:26.953Z,23.60
2022-09-02T10:18:59.346Z,23.60
2022-09-02T10:21:36.056Z,23.90
2022-09-02T10:24:31.805Z,24.20
2022-09-02T10:27:01.443Z,24.40
2022-09-02T10:29:32.112Z,24.50
2022-09-02T10:32:24.820Z,24.60
2022-09-02T10:34:52.471Z,24.60
2022-09-02T10:37:23.217Z,24.60
2022-09-02T10:40:02.943Z,24.40
2022-09-02T10:42:40.368Z,24.60
2022-09-02T10:45:10.828Z,24.70
2022-09-02T10:47:40.283Z,25.10
2022-09-02T10:50:23.695Z,25.60
2022-09-02T10:52:53.871Z,25.80
2022-09-02T10:55:26.249Z,25.70
2022-09-02T10:58:03.492Z,25.80
2022-09-02T11:00:32.780Z,26.30
2022-09-02T11:03:33.668Z,26.90
2022-09-02T11:06:18.869Z,27.70
2022-09-02T11:09:00.457Z,29.60
2022-09-02T11:11:41.084Z,31.70
2022-09-02T11:14:23.896Z,33.60
2022-09-02T11:16:59.285Z,34.30
2022-09-02T11:19:43.597Z,34.70
2022-09-02T11:22:27.325Z,35.20
2022-09-02T11:25:08.174Z,35.40
2022-09-02T11:28:08.382Z,35.70
2022-09-02T11:31:10.456Z,35.50
2022-09-02T11:36:39.627Z,35.30
2022-09-02T11:39:54.068Z,35.80
2022-09-02T11:42:26.953Z,35.40
2022-09-02T11:45:10.856Z,33.50
2022-09-02T11:48:00.132Z,33.90
2022-09-02T11:50:35.861Z,35.70
2022-09-02T11:53:28.813Z,36.50
2022-09-02T11:56:08.428Z,35.50
2022-09-02T11:58:38.235Z,35.00
2022-09-02T12:01:15.383Z,34.00
2022-09-02T12:07:09.092Z,32.80
2022-09-02T12:09:48.440Z,32.70
2022-09-02T12:12:59.189Z,32.40
2022-09-02T12:15:27.585Z,32.30
2022-09-02T12:17:55.999Z,32.10
2022-09-02T12:20:40.446Z,31.80
2022-09-02T12:23:11.631Z,31.80
2022-09-02T12:26:12.927Z,32.40
2022-09-02T12:28:46.543Z,34.10
2022-09-02T12:31:34.695Z,34.60
2022-09-02T12:34:03.832Z,34.60
2022-09-02T12:36:39.119Z,36.30
2022-09-02T12:39:30.903Z,37.30
2022-09-02T12:42:23.324Z,39.30
2022-09-02T12:45:04.762Z,40.60
2022-09-02T12:48:09.723Z,40.20
2022-09-02T12:50:55.254Z,41.10
2022-09-02T12:53:49.753Z,42.30
2022-09-02T12:56:24.802Z,42.20
2022-09-02T12:58:58.935Z,42.60
2022-09-02T13:02:13.499Z,42.00
2022-09-02T13:04:53.932Z,41.50
2022-09-02T13:07:21.724Z,41.50
2022-09-02T13:10:04.494Z,41.90
2022-09-02T13:13:15.552Z,42.10
2022-09-02T13:16:22.355Z,42.10
2022-09-02T13:19:12.436Z,40.40
2022-09-02T13:22:10.696Z,39.90
2022-09-02T13:24:56.865Z,40.80
2022-09-02T13:27:39.721Z,40.10
2022-09-02T13:30:18.819Z,41.70
2022-09-02T13:32:56.575Z,42.10
2022-09-02T13:35:27.355Z,41.60
2022-09-02T13:38:00.701Z,41.30
2022-09-02T13:40:38.804Z,41.70
2022-09-02T13:43:12.634Z,42.70
2022-09-02T13:45:41.312Z,42.90
2022-09-02T13:48:14.971Z,42.30
2022-09-02T13:50:48.490Z,42.40
2022-09-02T13:54:05.588Z,42.40
2022-09-02T13:56:27.278Z,42.40
2022-09-02T13:58:58.274Z,43.00
2022-09-02T14:01:40.160Z,42.70
2022-09-02T14:04:14.856Z,42.00
2022-09-02T14:06:47.242Z,41.20
2022-09-02T14:09:25.823Z,40.90
2022-09-02T14:11:54.524Z,41.50
2022-09-02T14:14:24.703Z,41.30
2022-09-02T14:16:52.843Z,40.60
2022-09-02T14:19:20.464Z,39.90
2022-09-02T14:21:53.187Z,39.30
2022-09-02T14:24:24.108Z,39.50
2022-09-02T14:26:59.997Z,39.70
2022-09-02T14:29:32.011Z,40.90
2022-09-02T14:32:21.953Z,41.70
2022-09-02T14:35:17.178Z,42.20
2022-09-02T14:38:02.798Z,42.70
2022-09-02T14:40:39.309Z,42.80
2022-09-02T14:43:15.695Z,41.90
2022-09-02T14:45:47.727Z,41.30
2022-09-02T14:48:22.017Z,42.00
2022-09-02T14:51:02.117Z,42.40
2022-09-02T14:53:31.212Z,42.30
2022-09-02T14:55:59.713Z,42.60
2022-09-02T14:58:28.859Z,41.60
2022-09-02T15:00:59.896Z,40.70
2022-09-02T15:03:31.807Z,41.20
2022-09-02T15:05:59.513Z,42.40
2022-09-02T15:08:27.231Z,42.70
2022-09-02T15:10:59.543Z,42.30
2022-09-02T15:13:29.231Z,42.60
2022-09-02T15:15:59.349Z,42.60
2022-09-02T15:18:27.199Z,41.50
2022-09-02T15:20:55.086Z,41.80
2022-09-02T15:23:24.120Z,42.00
2022-09-02T15:25:54.197Z,42.60
2022-09-02T15:28:21.837Z,42.70
2022-09-02T15:30:56.706Z,43.20
2022-09-02T15:33:24.627Z,43.30
2022-09-02T15:35:53.209Z,43.20
2022-09-02T15:38:21.933Z,42.90
2022-09-02T15:40:50.737Z,42.40
2022-09-02T15:43:20.640Z,42.70
2022-09-02T15:45:49.039Z,42.90
2022-09-02T15:48:25.117Z,43.00
2022-09-02T15:51:51.237Z,43.00
2022-09-02T15:54:50.047Z,42.70
2022-09-02T15:57:17.703Z,42.10
2022-09-02T15:59:45.385Z,42.60
2022-09-02T16:02:13.398Z,41.80
2022-09-02T16:04:41.627Z,41.90
2022-09-02T16:07:09.459Z,41.40
2022-09-02T16:09:42.998Z,40.70
2022-09-02T16:12:11.100Z,40.40
2022-09-02T16:14:38.758Z,40.40
2022-09-02T16:17:08.573Z,39.80
2022-09-02T16:19:36.257Z,39.90
2022-09-02T16:22:04.212Z,39.80
2022-09-02T16:24:31.960Z,39.50
2022-09-02T16:26:59.620Z,39.50
2022-09-02T16:29:28.032Z,39.50
2022-09-02T16:32:23.702Z,39.60
2022-09-02T16:34:45.318Z,38.50
2022-09-02T16:37:12.933Z,37.60
2022-09-02T16:39:40.631Z,38.00
2022-09-02T16:42:08.371Z,38.10
2022-09-02T16:44:36.038Z,37.70
2022-09-02T16:47:03.873Z,37.00
2022-09-02T16:49:32.056Z,36.30
2022-09-02T16:51:59.854Z,35.40
2022-09-02T16:54:32.436Z,33.90
2022-09-02T16:57:01.994Z,32.70
2022-09-02T16:59:31.575Z,31.20
2022-09-02T17:01:59.652Z,30.40
2022-09-02T17:04:27.767Z,29.70
2022-09-02T17:06:57.644Z,29.20
2022-09-02T17:09:25.923Z,28.80
2022-09-02T17:11:54.589Z,28.50
2022-09-02T17:14:23.122Z,28.10
2022-09-02T17:16:51.893Z,27.90
2022-09-02T17:19:21.897Z,27.70
2022-09-02T17:21:53.609Z,27.40
2022-09-02T17:24:25.846Z,27.30
2022-09-02T17:26:57.720Z,27.10
2022-09-02T17:32:21.033Z,26.80
2022-09-02T17:35:06.732Z,26.70
2022-09-02T17:44:11.109Z,26.20
2022-09-02T17:46:47.787Z,26.00
2022-09-02T17:49:36.090Z,25.90
2022-09-02T17:52:44.079Z,25.80
2022-09-02T18:09:42.189Z,24.90
2022-09-02T18:12:09.917Z,24.70
2022-09-02T18:14:47.593Z,24.60
2022-09-02T18:17:35.417Z,24.40
2022-09-02T18:20:09.375Z,24.30
2022-09-02T18:22:56.105Z,24.20
2022-09-02T18:25:57.086Z,24.10
2022-09-02T18:28:34.927Z,24.00
2022-09-02T18:31:30.605Z,24.00
2022-09-02T18:33:58.147Z,23.90
2022-09-02T18:36:39.117Z,23.80
2022-09-02T18:39:40.019Z,23.70
2022-09-02T18:42:32.069Z,23.70
2022-09-02T18:45:21.813Z,23.60
2022-09-02T18:48:10.533Z,23.50
2022-09-02T18:50:53.538Z,23.50
2022-09-02T18:53:36.850Z,23.40
2022-09-02T18:56:09.755Z,23.40
2022-09-02T18:58:47.084Z,23.40
2022-09-02T19:01:29.948Z,23.40
2022-09-02T19:04:01.538Z,23.30
2022-09-02T19:06:35.835Z,23.20
2022-09-02T19:09:11.443Z,23.10
2022-09-02T19:11:39.701Z,23.10
2022-09-02T19:14:29.216Z,23.10
2022-09-02T19:16:58.254Z,23.00
2022-09-02T19:19:27.547Z,22.90
2022-09-02T19:22:01.829Z,22.80
2022-09-02T19:24:50.691Z,22.70
2022-09-02T19:27:24.818Z,22.70
2022-09-02T19:30:02.547Z,22.70
2022-09-02T19:32:33.534Z,22.60
2022-09-02T19:35:16.256Z,22.50
2022-09-02T19:37:51.448Z,22.50
2022-09-02T19:40:26.521Z,22.40
2022-09-02T19:42:54.601Z,22.30
2022-09-02T19:45:23.250Z,22.20
2022-09-02T19:48:06.528Z,22.20
2022-09-02T19:50:46.532Z,22.10
2022-09-02T19:53:30.621Z,22.10
2022-09-02T19:55:59.823Z,22.10
2022-09-02T19:58:27.877Z,22.00
2022-09-02T20:00:56.906Z,21.90
2022-09-02T20:03:24.813Z,21.70
2022-09-02T20:05:52.796Z,21.60
2022-09-02T20:08:29.054Z,21.50
2022-09-02T20:11:02.245Z,21.40
2022-09-02T20:13:37.392Z,21.40
2022-09-02T20:16:17.689Z,21.40
2022-09-02T20:18:46.134Z,21.40
2022-09-02T20:21:26.495Z,21.40
2022-09-02T20:24:11.770Z,21.40
2022-09-02T20:26:59.006Z,21.40
2022-09-02T20:29:42.060Z,21.30
2022-09-02T20:32:18.901Z,21.20
2022-09-02T20:35:24.693Z,21.10
2022-09-02T20:37:58.443Z,21.10
2022-09-02T20:40:55.677Z,20.90
2022-09-02T20:43:39.492Z,20.80
2022-09-02T20:46:12.942Z,20.80
2022-09-02T20:49:01.469Z,20.80
2022-09-02T20:51:41.569Z,20.70
2022-09-02T20:54:22.100Z,20.70
2022-09-02T20:57:31.174Z,20.70
2022-09-02T21:00:11.097Z,20.70
2022-09-02T21:02:56.629Z,20.60
2022-09-02T21:05:29.205Z,20.50
2022-09-02T21:08:13.430Z,20.50
2022-09-02T21:10:43.139Z,20.50
2022-09-02T21:13:22.861Z,20.50
2022-09-02T21:16:00.200Z,20.50
2022-09-02T21:18:36.616Z,20.40
2022-09-02T21:21:23.046Z,20.40
2022-09-02T21:24:08.292Z,20.40
2022-09-02T21:26:36.256Z,20.30
2022-09-02T21:29:15.352Z,20.30
2022-09-02T21:32:27.808Z,20.30
2022-09-02T21:34:59.974Z,20.30
2022-09-02T21:37:33.015Z,20.10
2022-09-02T21:40:07.463Z,20.10
2022-09-02T21:43:02.407Z,20.10
2022-09-02T21:45:39.283Z,20.00
2022-09-02T21:48:23.004Z,20.00
2022-09-02T21:50:57.952Z,19.90
2022-09-02T21:53:46.111Z,19.80
2022-09-02T21:56:45.449Z,19.80
2022-09-02T21:59:38.870Z,19.70
2022-09-02T22:02:14.960Z,19.70
2022-09-02T22:05:20.797Z,19.60
2022-09-02T22:08:11.142Z,19.60
2022-09-02T22:10:43.351Z,19.60
2022-09-02T22:13:11.826Z,19.60
2022-09-02T22:15:58.116Z,19.60
2022-09-02T22:18:32.902Z,19.70
2022-09-02T22:21:17.040Z,19.70
2022-09-02T22:23:44.662Z,19.70
2022-09-02T22:26:20.234Z,19.80
2022-09-02T22:28:53.049Z,19.80
2022-09-02T22:31:25.921Z,19.90
2022-09-02T22:33:58.603Z,19.80
2022-09-02T22:36:55.226Z,19.70
2022-09-02T22:39:37.494Z,19.70
2022-09-02T22:42:24.413Z,19.70
2022-09-02T22:45:30.801Z,19.70
2022-09-02T22:48:48.697Z,19.70
2022-09-02T22:51:41.766Z,19.80
2022-09-02T22:54:09.835Z,19.80
2022-09-02T22:57:21.048Z,19.80
2022-09-02T23:00:01.673Z,19.90
2022-09-02T23:02:36.840Z,19.80
2022-09-02T23:05:38.278Z,19.80
2022-09-02T23:08:07.409Z,19.80
2022-09-02T23:10:57.465Z,19.80
2022-09-02T23:13:43.238Z,19.80
2022-09-02T23:16:27.018Z,19.90
2022-09-02T23:19:14.425Z,19.90
2022-09-02T23:22:09.407Z,19.90
2022-09-02T23:24:37.231Z,19.90
2022-09-02T23:27:34.254Z,19.90
2022-09-02T23:30:01.919Z,19.90
2022-09-02T23:32:51.983Z,19.90
2022-09-02T23:35:34.970Z,19.80
2022-09-02T23:38:43.083Z,19.80
2022-09-02T23:41:12.177Z,19.80
2022-09-02T23:43:43.874Z,19.70
2022-09-02T23:46:33.118Z,19.60
2022-09-02T23:49:23.194Z,19.60
2022-09-02T23:52:35.351Z,19.50
2022-09-02T23:55:23.974Z,19.40
2022-09-02T23:58:07.024Z,19.40
